sensor_id;sensor_type;location;lat;lon;timestamp;P1;durP1;ratioP1;P2;durP2;ratioP2
35496;SDS011;21609;49.298;6.844;2023-03-04T00:00:19;18.73;;;17.13;;
35496;SDS011;21609;49.298;6.844;2023-03-04T00:02:44;18.02;;;16.40;;
35496;SDS011;21609;49.298;6.844;2023-03-04T00:05:10;19.17;;;17.58;;
35496;SDS011;21609;49.298;6.844;2023-03-04T00:07:36;19.15;;;17.58;;
35496;SDS011;21609;49.298;6.844;2023-03-04T00:10:01;18.90;;;17.35;;
35496;SDS011;21609;49.298;6.844;2023-03-04T00:12:27;18.55;;;16.95;;
35496;SDS011;21609;49.298;6.844;2023-03-04T00:14:53;16.27;;;14.88;;
35496;SDS011;21609;49.298;6.844;2023-03-04T00:17:18;17.98;;;16.40;;
35496;SDS011;21609;49.298;6.844;2023-03-04T00:19:44;17.13;;;15.63;;
35496;SDS011;21609;49.298;6.844;2023-03-04T00:22:10;17.52;;;15.93;;
35496;SDS011;21609;49.298;6.844;2023-03-04T00:24:35;17.38;;;15.88;;
35496;SDS011;21609;49.298;6.844;2023-03-04T00:27:01;18.60;;;16.92;;
35496;SDS011;21609;49.298;6.844;2023-03-04T00:29:26;17.48;;;15.88;;
35496;SDS011;21609;49.298;6.844;2023-03-04T00:31:52;18.25;;;16.75;;
35496;SDS011;21609;49.298;6.844;2023-03-04T00:34:18;17.98;;;16.38;;
35496;SDS011;21609;49.298;6.844;2023-03-04T00:36:44;16.02;;;14.63;;
35496;SDS011;21609;49.298;6.844;2023-03-04T00:39:10;16.88;;;15.40;;
35496;SDS011;21609;49.298;6.844;2023-03-04T00:41:36;17.17;;;15.55;;
35496;SDS011;21609;49.298;6.844;2023-03-04T00:44:02;15.82;;;14.48;;
35496;SDS011;21609;49.298;6.844;2023-03-04T00:46:28;17.75;;;16.25;;
35496;SDS011;21609;49.298;6.844;2023-03-04T00:48:53;16.13;;;14.73;;
35496;SDS011;21609;49.298;6.844;2023-03-04T00:51:19;16.45;;;15.05;;
35496;SDS011;21609;49.298;6.844;2023-03-04T00:53:44;15.70;;;14.40;;
35496;SDS011;21609;49.298;6.844;2023-03-04T00:56:11;16.77;;;15.35;;
35496;SDS011;21609;49.298;6.844;2023-03-04T00:58:37;16.20;;;14.77;;
35496;SDS011;21609;49.298;6.844;2023-03-04T01:01:04;15.85;;;14.45;;
35496;SDS011;21609;49.298;6.844;2023-03-04T01:03:32;16.70;;;15.20;;
35496;SDS011;21609;49.298;6.844;2023-03-04T01:05:58;16.08;;;14.77;;
35496;SDS011;21609;49.298;6.844;2023-03-04T01:08:25;14.43;;;13.23;;
35496;SDS011;21609;49.298;6.844;2023-03-04T01:10:51;16.02;;;14.73;;
35496;SDS011;21609;49.298;6.844;2023-03-04T01:13:17;15.75;;;14.40;;
35496;SDS011;21609;49.298;6.844;2023-03-04T01:15:42;14.77;;;13.48;;
35496;SDS011;21609;49.298;6.844;2023-03-04T01:18:08;15.93;;;14.52;;
35496;SDS011;21609;49.298;6.844;2023-03-04T01:20:34;16.85;;;15.25;;
35496;SDS011;21609;49.298;6.844;2023-03-04T01:22:59;15.60;;;14.30;;
35496;SDS011;21609;49.298;6.844;2023-03-04T01:25:25;15.52;;;14.13;;
35496;SDS011;21609;49.298;6.844;2023-03-04T01:27:50;15.68;;;14.27;;
35496;SDS011;21609;49.298;6.844;2023-03-04T01:30:16;14.63;;;13.32;;
35496;SDS011;21609;49.298;6.844;2023-03-04T01:32:42;14.63;;;13.43;;
35496;SDS011;21609;49.298;6.844;2023-03-04T01:35:07;14.38;;;13.25;;
35496;SDS011;21609;49.298;6.844;2023-03-04T01:37:34;15.75;;;14.27;;
35496;SDS011;21609;49.298;6.844;2023-03-04T01:39:59;14.25;;;12.98;;
35496;SDS011;21609;49.298;6.844;2023-03-04T01:42:25;15.13;;;13.82;;
35496;SDS011;21609;49.298;6.844;2023-03-04T01:44:54;14.55;;;13.30;;
35496;SDS011;21609;49.298;6.844;2023-03-04T01:47:19;13.85;;;12.75;;
35496;SDS011;21609;49.298;6.844;2023-03-04T01:49:49;14.27;;;13.00;;
35496;SDS011;21609;49.298;6.844;2023-03-04T01:52:18;14.95;;;13.63;;
35496;SDS011;21609;49.298;6.844;2023-03-04T01:54:43;14.38;;;13.07;;
35496;SDS011;21609;49.298;6.844;2023-03-04T01:57:14;15.02;;;13.63;;
35496;SDS011;21609;49.298;6.844;2023-03-04T01:59:42;14.02;;;12.82;;
35496;SDS011;21609;49.298;6.844;2023-03-04T02:02:07;14.20;;;13.00;;
35496;SDS011;21609;49.298;6.844;2023-03-04T02:04:33;14.40;;;13.13;;
35496;SDS011;21609;49.298;6.844;2023-03-04T02:06:59;14.73;;;13.32;;
35496;SDS011;21609;49.298;6.844;2023-03-04T02:09:26;14.60;;;13.40;;
35496;SDS011;21609;49.298;6.844;2023-03-04T02:11:53;13.20;;;12.10;;
35496;SDS011;21609;49.298;6.844;2023-03-04T02:14:19;14.38;;;13.18;;
35496;SDS011;21609;49.298;6.844;2023-03-04T02:16:45;14.05;;;12.82;;
35496;SDS011;21609;49.298;6.844;2023-03-04T02:19:15;14.15;;;12.95;;
35496;SDS011;21609;49.298;6.844;2023-03-04T02:21:55;12.88;;;11.80;;
35496;SDS011;21609;49.298;6.844;2023-03-04T02:26:50;13.82;;;12.60;;
35496;SDS011;21609;49.298;6.844;2023-03-04T02:29:16;14.10;;;12.80;;
35496;SDS011;21609;49.298;6.844;2023-03-04T02:31:46;12.40;;;11.40;;
35496;SDS011;21609;49.298;6.844;2023-03-04T02:34:23;13.15;;;11.98;;
35496;SDS011;21609;49.298;6.844;2023-03-04T02:36:52;13.15;;;12.05;;
35496;SDS011;21609;49.298;6.844;2023-03-04T02:41:44;12.77;;;11.68;;
35496;SDS011;21609;49.298;6.844;2023-03-04T02:44:14;13.93;;;12.73;;
35496;SDS011;21609;49.298;6.844;2023-03-04T02:46:41;12.57;;;11.48;;
35496;SDS011;21609;49.298;6.844;2023-03-04T02:49:07;13.50;;;12.30;;
35496;SDS011;21609;49.298;6.844;2023-03-04T02:51:33;12.80;;;11.60;;
35496;SDS011;21609;49.298;6.844;2023-03-04T02:53:58;12.15;;;10.93;;
35496;SDS011;21609;49.298;6.844;2023-03-04T02:56:24;12.20;;;11.20;;
35496;SDS011;21609;49.298;6.844;2023-03-04T02:58:49;12.75;;;11.70;;
35496;SDS011;21609;49.298;6.844;2023-03-04T03:01:15;11.90;;;10.90;;
35496;SDS011;21609;49.298;6.844;2023-03-04T03:03:40;11.23;;;10.32;;
35496;SDS011;21609;49.298;6.844;2023-03-04T03:06:06;12.15;;;11.13;;
35496;SDS011;21609;49.298;6.844;2023-03-04T03:08:31;11.75;;;10.75;;
35496;SDS011;21609;49.298;6.844;2023-03-04T03:10:57;10.82;;;9.82;;
35496;SDS011;21609;49.298;6.844;2023-03-04T03:13:23;11.50;;;10.57;;
35496;SDS011;21609;49.298;6.844;2023-03-04T03:15:48;12.02;;;10.98;;
35496;SDS011;21609;49.298;6.844;2023-03-04T03:18:14;12.32;;;11.25;;
35496;SDS011;21609;49.298;6.844;2023-03-04T03:20:40;12.38;;;11.13;;
35496;SDS011;21609;49.298;6.844;2023-03-04T03:23:06;11.95;;;10.95;;
35496;SDS011;21609;49.298;6.844;2023-03-04T03:25:31;12.27;;;11.18;;
35496;SDS011;21609;49.298;6.844;2023-03-04T03:27:57;11.02;;;10.13;;
35496;SDS011;21609;49.298;6.844;2023-03-04T03:30:23;11.98;;;10.95;;
35496;SDS011;21609;49.298;6.844;2023-03-04T03:32:48;11.18;;;10.25;;
35496;SDS011;21609;49.298;6.844;2023-03-04T03:35:14;11.80;;;10.75;;
35496;SDS011;21609;49.298;6.844;2023-03-04T03:37:40;11.27;;;10.38;;
35496;SDS011;21609;49.298;6.844;2023-03-04T03:40:06;11.00;;;10.00;;
35496;SDS011;21609;49.298;6.844;2023-03-04T03:42:32;10.48;;;9.57;;
35496;SDS011;21609;49.298;6.844;2023-03-04T03:44:57;11.05;;;10.05;;
35496;SDS011;21609;49.298;6.844;2023-03-04T03:47:23;10.85;;;9.95;;
35496;SDS011;21609;49.298;6.844;2023-03-04T03:49:48;11.90;;;10.90;;
35496;SDS011;21609;49.298;6.844;2023-03-04T03:52:14;14.57;;;13.05;;
35496;SDS011;21609;49.298;6.844;2023-03-04T03:54:39;11.68;;;10.57;;
35496;SDS011;21609;49.298;6.844;2023-03-04T03:57:05;10.63;;;9.73;;
35496;SDS011;21609;49.298;6.844;2023-03-04T03:59:30;10.98;;;10.07;;
35496;SDS011;21609;49.298;6.844;2023-03-04T04:01:56;10.80;;;9.90;;
35496;SDS011;21609;49.298;6.844;2023-03-04T04:04:22;9.90;;;9.00;;
35496;SDS011;21609;49.298;6.844;2023-03-04T04:06:47;10.60;;;9.70;;
35496;SDS011;21609;49.298;6.844;2023-03-04T04:09:13;11.18;;;10.18;;
35496;SDS011;21609;49.298;6.844;2023-03-04T04:11:38;11.02;;;10.02;;
35496;SDS011;21609;49.298;6.844;2023-03-04T04:14:04;11.00;;;10.10;;
35496;SDS011;21609;49.298;6.844;2023-03-04T04:16:29;10.15;;;9.25;;
35496;SDS011;21609;49.298;6.844;2023-03-04T04:18:55;13.45;;;12.02;;
35496;SDS011;21609;49.298;6.844;2023-03-04T04:21:21;10.57;;;9.68;;
35496;SDS011;21609;49.298;6.844;2023-03-04T04:23:47;10.73;;;9.73;;
35496;SDS011;21609;49.298;6.844;2023-03-04T04:26:12;10.48;;;9.57;;
35496;SDS011;21609;49.298;6.844;2023-03-04T04:28:38;10.63;;;9.52;;
35496;SDS011;21609;49.298;6.844;2023-03-04T04:31:07;14.15;;;12.75;;
35496;SDS011;21609;49.298;6.844;2023-03-04T04:33:34;10.63;;;9.60;;
35496;SDS011;21609;49.298;6.844;2023-03-04T04:36:00;9.73;;;8.82;;
35496;SDS011;21609;49.298;6.844;2023-03-04T04:38:26;9.60;;;8.80;;
35496;SDS011;21609;49.298;6.844;2023-03-04T04:40:51;10.20;;;9.32;;
35496;SDS011;21609;49.298;6.844;2023-03-04T04:43:17;10.10;;;9.25;;
35496;SDS011;21609;49.298;6.844;2023-03-04T04:45:42;9.30;;;8.40;;
35496;SDS011;21609;49.298;6.844;2023-03-04T04:48:08;9.82;;;9.02;;
35496;SDS011;21609;49.298;6.844;2023-03-04T04:50:34;12.75;;;11.55;;
35496;SDS011;21609;49.298;6.844;2023-03-04T04:52:59;9.25;;;8.40;;
35496;SDS011;21609;49.298;6.844;2023-03-04T04:55:25;9.43;;;8.63;;
35496;SDS011;21609;49.298;6.844;2023-03-04T04:57:50;12.32;;;11.13;;
35496;SDS011;21609;49.298;6.844;2023-03-04T05:00:16;8.55;;;7.75;;
35496;SDS011;21609;49.298;6.844;2023-03-04T05:02:42;9.50;;;8.70;;
35496;SDS011;21609;49.298;6.844;2023-03-04T05:05:08;9.52;;;8.73;;
35496;SDS011;21609;49.298;6.844;2023-03-04T05:07:34;12.95;;;11.65;;
35496;SDS011;21609;49.298;6.844;2023-03-04T05:10:00;9.35;;;8.55;;
35496;SDS011;21609;49.298;6.844;2023-03-04T05:12:26;9.30;;;8.50;;
35496;SDS011;21609;49.298;6.844;2023-03-04T05:14:52;10.23;;;9.18;;
35496;SDS011;21609;49.298;6.844;2023-03-04T05:17:18;12.82;;;11.63;;
35496;SDS011;21609;49.298;6.844;2023-03-04T05:19:43;9.75;;;8.85;;
35496;SDS011;21609;49.298;6.844;2023-03-04T05:22:09;12.25;;;11.05;;
35496;SDS011;21609;49.298;6.844;2023-03-04T05:24:34;9.35;;;8.52;;
35496;SDS011;21609;49.298;6.844;2023-03-04T05:27:00;12.23;;;11.13;;
35496;SDS011;21609;49.298;6.844;2023-03-04T05:29:26;8.82;;;8.10;;
35496;SDS011;21609;49.298;6.844;2023-03-04T05:31:52;9.00;;;8.25;;
35496;SDS011;21609;49.298;6.844;2023-03-04T05:34:17;9.45;;;8.65;;
35496;SDS011;21609;49.298;6.844;2023-03-04T05:36:43;8.30;;;7.60;;
35496;SDS011;21609;49.298;6.844;2023-03-04T05:39:09;8.73;;;8.02;;
35496;SDS011;21609;49.298;6.844;2023-03-04T05:41:34;12.18;;;11.07;;
35496;SDS011;21609;49.298;6.844;2023-03-04T05:44:00;8.65;;;7.88;;
35496;SDS011;21609;49.298;6.844;2023-03-04T05:46:26;8.70;;;7.80;;
35496;SDS011;21609;49.298;6.844;2023-03-04T05:48:52;7.93;;;7.25;;
35496;SDS011;21609;49.298;6.844;2023-03-04T05:51:18;11.52;;;10.43;;
35496;SDS011;21609;49.298;6.844;2023-03-04T05:53:44;9.27;;;8.38;;
35496;SDS011;21609;49.298;6.844;2023-03-04T05:56:12;8.70;;;7.90;;
35496;SDS011;21609;49.298;6.844;2023-03-04T05:58:39;11.70;;;10.50;;
35496;SDS011;21609;49.298;6.844;2023-03-04T06:01:04;8.15;;;7.45;;
35496;SDS011;21609;49.298;6.844;2023-03-04T06:03:30;9.02;;;8.18;;
35496;SDS011;21609;49.298;6.844;2023-03-04T06:05:57;8.65;;;7.85;;
35496;SDS011;21609;49.298;6.844;2023-03-04T06:08:22;8.13;;;7.43;;
35496;SDS011;21609;49.298;6.844;2023-03-04T06:10:50;8.55;;;7.72;;
35496;SDS011;21609;49.298;6.844;2023-03-04T06:13:17;11.05;;;9.95;;
35496;SDS011;21609;49.298;6.844;2023-03-04T06:15:42;8.65;;;7.95;;
35496;SDS011;21609;49.298;6.844;2023-03-04T06:18:08;8.07;;;7.38;;
35496;SDS011;21609;49.298;6.844;2023-03-04T06:20:33;11.20;;;10.10;;
35496;SDS011;21609;49.298;6.844;2023-03-04T06:22:59;8.18;;;7.47;;
35496;SDS011;21609;49.298;6.844;2023-03-04T06:25:24;9.18;;;8.27;;
35496;SDS011;21609;49.298;6.844;2023-03-04T06:27:50;7.88;;;7.15;;
35496;SDS011;21609;49.298;6.844;2023-03-04T06:30:15;8.25;;;7.50;;
35496;SDS011;21609;49.298;6.844;2023-03-04T06:32:42;9.85;;;8.88;;
35496;SDS011;21609;49.298;6.844;2023-03-04T06:35:11;8.88;;;8.05;;
35496;SDS011;21609;49.298;6.844;2023-03-04T06:37:37;10.40;;;9.05;;
35496;SDS011;21609;49.298;6.844;2023-03-04T06:40:03;7.93;;;7.22;;
35496;SDS011;21609;49.298;6.844;2023-03-04T06:42:29;11.23;;;9.95;;
35496;SDS011;21609;49.298;6.844;2023-03-04T06:44:55;8.20;;;7.40;;
35496;SDS011;21609;49.298;6.844;2023-03-04T06:47:21;10.98;;;9.82;;
35496;SDS011;21609;49.298;6.844;2023-03-04T06:49:46;8.18;;;7.47;;
35496;SDS011;21609;49.298;6.844;2023-03-04T06:52:12;13.75;;;10.68;;
35496;SDS011;21609;49.298;6.844;2023-03-04T06:54:38;8.45;;;7.65;;
35496;SDS011;21609;49.298;6.844;2023-03-04T06:57:04;10.55;;;8.93;;
35496;SDS011;21609;49.298;6.844;2023-03-04T06:59:30;7.80;;;7.03;;
35496;SDS011;21609;49.298;6.844;2023-03-04T07:01:56;7.60;;;6.90;;
35496;SDS011;21609;49.298;6.844;2023-03-04T07:04:21;10.35;;;9.23;;
35496;SDS011;21609;49.298;6.844;2023-03-04T07:06:48;7.68;;;6.93;;
35496;SDS011;21609;49.298;6.844;2023-03-04T07:09:14;7.63;;;6.88;;
35496;SDS011;21609;49.298;6.844;2023-03-04T07:11:39;8.32;;;7.53;;
35496;SDS011;21609;49.298;6.844;2023-03-04T07:14:05;12.13;;;9.43;;
35496;SDS011;21609;49.298;6.844;2023-03-04T07:16:31;8.10;;;7.30;;
35496;SDS011;21609;49.298;6.844;2023-03-04T07:18:56;7.47;;;6.88;;
35496;SDS011;21609;49.298;6.844;2023-03-04T07:21:22;7.25;;;6.63;;
35496;SDS011;21609;49.298;6.844;2023-03-04T07:23:48;7.82;;;7.13;;
35496;SDS011;21609;49.298;6.844;2023-03-04T07:26:13;7.85;;;7.07;;
35496;SDS011;21609;49.298;6.844;2023-03-04T07:28:39;10.18;;;8.68;;
35496;SDS011;21609;49.298;6.844;2023-03-04T07:31:09;7.25;;;6.57;;
35496;SDS011;21609;49.298;6.844;2023-03-04T07:33:42;10.57;;;9.23;;
35496;SDS011;21609;49.298;6.844;2023-03-04T07:36:07;8.23;;;7.50;;
35496;SDS011;21609;49.298;6.844;2023-03-04T07:38:33;7.32;;;6.72;;
35496;SDS011;21609;49.298;6.844;2023-03-04T07:40:59;7.72;;;7.03;;
35496;SDS011;21609;49.298;6.844;2023-03-04T07:43:25;7.47;;;6.75;;
35496;SDS011;21609;49.298;6.844;2023-03-04T07:45:50;9.68;;;8.45;;
35496;SDS011;21609;49.298;6.844;2023-03-04T07:48:16;7.35;;;6.65;;
35496;SDS011;21609;49.298;6.844;2023-03-04T07:50:41;9.10;;;8.15;;
35496;SDS011;21609;49.298;6.844;2023-03-04T07:53:07;7.95;;;6.60;;
35496;SDS011;21609;49.298;6.844;2023-03-04T07:55:32;9.63;;;8.55;;
35496;SDS011;21609;49.298;6.844;2023-03-04T07:57:58;7.05;;;6.35;;
35496;SDS011;21609;49.298;6.844;2023-03-04T08:00:24;7.53;;;6.82;;
35496;SDS011;21609;49.298;6.844;2023-03-04T08:02:49;8.48;;;7.55;;
35496;SDS011;21609;49.298;6.844;2023-03-04T08:05:15;7.60;;;6.82;;
35496;SDS011;21609;49.298;6.844;2023-03-04T08:07:41;10.55;;;8.73;;
35496;SDS011;21609;49.298;6.844;2023-03-04T08:10:06;8.38;;;6.43;;
35496;SDS011;21609;49.298;6.844;2023-03-04T08:12:33;7.53;;;6.82;;
35496;SDS011;21609;49.298;6.844;2023-03-04T08:14:59;7.28;;;6.63;;
35496;SDS011;21609;49.298;6.844;2023-03-04T08:17:25;7.18;;;6.47;;
35496;SDS011;21609;49.298;6.844;2023-03-04T08:19:53;9.68;;;7.70;;
35496;SDS011;21609;49.298;6.844;2023-03-04T08:22:19;6.57;;;5.97;;
35496;SDS011;21609;49.298;6.844;2023-03-04T08:24:44;6.85;;;6.25;;
35496;SDS011;21609;49.298;6.844;2023-03-04T08:27:10;6.75;;;6.15;;
35496;SDS011;21609;49.298;6.844;2023-03-04T08:29:36;6.80;;;6.10;;
35496;SDS011;21609;49.298;6.844;2023-03-04T08:32:01;6.60;;;6.00;;
35496;SDS011;21609;49.298;6.844;2023-03-04T08:34:27;9.05;;;8.07;;
35496;SDS011;21609;49.298;6.844;2023-03-04T08:36:53;7.78;;;7.07;;
35496;SDS011;21609;49.298;6.844;2023-03-04T08:39:19;8.05;;;6.65;;
35496;SDS011;21609;49.298;6.844;2023-03-04T08:41:45;6.57;;;6.00;;
35496;SDS011;21609;49.298;6.844;2023-03-04T08:44:11;6.88;;;6.05;;
35496;SDS011;21609;49.298;6.844;2023-03-04T08:46:37;7.30;;;6.63;;
35496;SDS011;21609;49.298;6.844;2023-03-04T08:49:05;6.78;;;6.20;;
35496;SDS011;21609;49.298;6.844;2023-03-04T08:51:32;6.68;;;5.95;;
35496;SDS011;21609;49.298;6.844;2023-03-04T08:53:59;9.77;;;7.32;;
35496;SDS011;21609;49.298;6.844;2023-03-04T08:56:26;7.18;;;6.47;;
35496;SDS011;21609;49.298;6.844;2023-03-04T08:58:51;9.70;;;7.97;;
35496;SDS011;21609;49.298;6.844;2023-03-04T09:01:17;7.97;;;7.18;;
35496;SDS011;21609;49.298;6.844;2023-03-04T09:03:42;7.07;;;6.38;;
35496;SDS011;21609;49.298;6.844;2023-03-04T09:06:08;7.93;;;7.07;;
35496;SDS011;21609;49.298;6.844;2023-03-04T09:08:35;7.00;;;6.35;;
35496;SDS011;21609;49.298;6.844;2023-03-04T09:11:01;6.78;;;6.07;;
35496;SDS011;21609;49.298;6.844;2023-03-04T09:13:28;7.78;;;6.55;;
35496;SDS011;21609;49.298;6.844;2023-03-04T09:15:55;7.10;;;5.85;;
35496;SDS011;21609;49.298;6.844;2023-03-04T09:18:21;6.82;;;6.13;;
35496;SDS011;21609;49.298;6.844;2023-03-04T09:20:48;6.90;;;6.05;;
35496;SDS011;21609;49.298;6.844;2023-03-04T09:23:15;7.88;;;6.13;;
35496;SDS011;21609;49.298;6.844;2023-03-04T09:25:42;6.38;;;5.78;;
35496;SDS011;21609;49.298;6.844;2023-03-04T09:28:09;6.82;;;6.13;;
35496;SDS011;21609;49.298;6.844;2023-03-04T09:30:36;6.85;;;6.15;;
35496;SDS011;21609;49.298;6.844;2023-03-04T09:33:02;6.65;;;5.95;;
35496;SDS011;21609;49.298;6.844;2023-03-04T09:35:28;6.32;;;5.45;;
35496;SDS011;21609;49.298;6.844;2023-03-04T09:37:54;5.55;;;4.80;;
35496;SDS011;21609;49.298;6.844;2023-03-04T09:40:21;6.80;;;5.53;;
35496;SDS011;21609;49.298;6.844;2023-03-04T09:42:52;5.75;;;5.25;;
35496;SDS011;21609;49.298;6.844;2023-03-04T09:45:23;6.57;;;5.38;;
35496;SDS011;21609;49.298;6.844;2023-03-04T09:47:55;5.60;;;5.10;;
35496;SDS011;21609;49.298;6.844;2023-03-04T09:50:22;5.93;;;5.38;;
35496;SDS011;21609;49.298;6.844;2023-03-04T09:55:38;5.93;;;5.43;;
35496;SDS011;21609;49.298;6.844;2023-03-04T10:03:49;6.05;;;5.45;;
35496;SDS011;21609;49.298;6.844;2023-03-04T10:06:22;6.88;;;5.88;;
35496;SDS011;21609;49.298;6.844;2023-03-04T10:11:24;6.50;;;5.90;;
35496;SDS011;21609;49.298;6.844;2023-03-04T10:14:25;5.68;;;5.18;;
35496;SDS011;21609;49.298;6.844;2023-03-04T10:27:55;5.90;;;5.40;;
35496;SDS011;21609;49.298;6.844;2023-03-04T10:33:14;8.70;;;7.32;;
35496;SDS011;21609;49.298;6.844;2023-03-04T10:35:47;6.20;;;5.60;;
35496;SDS011;21609;49.298;6.844;2023-03-04T10:38:24;6.25;;;5.35;;
35496;SDS011;21609;49.298;6.844;2023-03-04T10:40:50;5.93;;;5.32;;
35496;SDS011;21609;49.298;6.844;2023-03-04T10:43:19;5.50;;;4.97;;
35496;SDS011;21609;49.298;6.844;2023-03-04T10:45:46;5.55;;;5.05;;
35496;SDS011;21609;49.298;6.844;2023-03-04T10:48:19;18.20;;;5.65;;
35496;SDS011;21609;49.298;6.844;2023-03-04T10:50:49;8.25;;;5.05;;
35496;SDS011;21609;49.298;6.844;2023-03-04T10:53:37;9.68;;;5.47;;
35496;SDS011;21609;49.298;6.844;2023-03-04T10:56:03;12.27;;;7.70;;
35496;SDS011;21609;49.298;6.844;2023-03-04T10:58:32;9.25;;;5.95;;
35496;SDS011;21609;49.298;6.844;2023-03-04T11:01:02;10.93;;;6.47;;
35496;SDS011;21609;49.298;6.844;2023-03-04T11:03:31;12.02;;;5.50;;
35496;SDS011;21609;49.298;6.844;2023-03-04T11:06:03;12.73;;;6.20;;
35496;SDS011;21609;49.298;6.844;2023-03-04T11:08:29;6.13;;;5.53;;
35496;SDS011;21609;49.298;6.844;2023-03-04T11:10:54;10.02;;;5.97;;
35496;SDS011;21609;49.298;6.844;2023-03-04T11:13:21;9.60;;;5.13;;
35496;SDS011;21609;49.298;6.844;2023-03-04T11:18:23;6.30;;;5.50;;
35496;SDS011;21609;49.298;6.844;2023-03-04T11:21:03;13.77;;;5.57;;
35496;SDS011;21609;49.298;6.844;2023-03-04T11:23:33;7.07;;;5.43;;
35496;SDS011;21609;49.298;6.844;2023-03-04T11:26:20;6.30;;;5.65;;
35496;SDS011;21609;49.298;6.844;2023-03-04T11:34:19;9.20;;;5.55;;
35496;SDS011;21609;49.298;6.844;2023-03-04T11:36:54;6.85;;;5.25;;
35496;SDS011;21609;49.298;6.844;2023-03-04T11:45:15;8.43;;;5.53;;
35496;SDS011;21609;49.298;6.844;2023-03-04T11:50:28;7.65;;;5.35;;
35496;SDS011;21609;49.298;6.844;2023-03-04T11:56:11;9.70;;;6.22;;
35496;SDS011;21609;49.298;6.844;2023-03-04T11:59:00;6.05;;;4.93;;
35496;SDS011;21609;49.298;6.844;2023-03-04T12:01:54;6.10;;;4.75;;
35496;SDS011;21609;49.298;6.844;2023-03-04T12:04:47;9.60;;;5.18;;
35496;SDS011;21609;49.298;6.844;2023-03-04T12:10:26;9.30;;;5.53;;
35496;SDS011;21609;49.298;6.844;2023-03-04T12:13:36;8.80;;;6.25;;
35496;SDS011;21609;49.298;6.844;2023-03-04T12:21:28;6.50;;;4.45;;
35496;SDS011;21609;49.298;6.844;2023-03-04T12:24:22;7.63;;;5.88;;
35496;SDS011;21609;49.298;6.844;2023-03-04T12:32:02;8.25;;;6.25;;
35496;SDS011;21609;49.298;6.844;2023-03-04T12:34:52;7.18;;;5.00;;
35496;SDS011;21609;49.298;6.844;2023-03-04T12:37:37;7.15;;;5.32;;
35496;SDS011;21609;49.298;6.844;2023-03-04T12:40:14;11.68;;;6.97;;
35496;SDS011;21609;49.298;6.844;2023-03-04T12:42:57;5.95;;;4.68;;
35496;SDS011;21609;49.298;6.844;2023-03-04T12:54:21;5.32;;;4.13;;
35496;SDS011;21609;49.298;6.844;2023-03-04T12:59:22;7.45;;;4.22;;
35496;SDS011;21609;49.298;6.844;2023-03-04T13:04:42;4.65;;;4.13;;
35496;SDS011;21609;49.298;6.844;2023-03-04T13:07:19;7.30;;;4.50;;
35496;SDS011;21609;49.298;6.844;2023-03-04T13:10:00;6.53;;;4.68;;
35496;SDS011;21609;49.298;6.844;2023-03-04T13:12:46;6.82;;;4.40;;
35496;SDS011;21609;49.298;6.844;2023-03-04T13:17:49;5.65;;;5.00;;
35496;SDS011;21609;49.298;6.844;2023-03-04T13:20:19;6.32;;;4.38;;
35496;SDS011;21609;49.298;6.844;2023-03-04T13:22:58;4.65;;;3.88;;
35496;SDS011;21609;49.298;6.844;2023-03-04T13:46:42;4.63;;;3.53;;
35496;SDS011;21609;49.298;6.844;2023-03-04T13:49:13;4.22;;;3.75;;
35496;SDS011;21609;49.298;6.844;2023-03-04T13:51:43;4.30;;;3.55;;
35496;SDS011;21609;49.298;6.844;2023-03-04T13:54:20;4.63;;;3.75;;
35496;SDS011;21609;49.298;6.844;2023-03-04T14:00:04;4.18;;;3.50;;
35496;SDS011;21609;49.298;6.844;2023-03-04T14:02:14;6.57;;;4.22;;
35496;SDS011;21609;49.298;6.844;2023-03-04T14:12:23;4.18;;;3.08;;
35496;SDS011;21609;49.298;6.844;2023-03-04T14:14:52;4.30;;;3.88;;
35496;SDS011;21609;49.298;6.844;2023-03-04T14:17:24;5.72;;;4.05;;
35496;SDS011;21609;49.298;6.844;2023-03-04T14:19:53;4.00;;;3.42;;
35496;SDS011;21609;49.298;6.844;2023-03-04T14:22:20;4.78;;;3.35;;
35496;SDS011;21609;49.298;6.844;2023-03-04T14:24:54;3.65;;;3.28;;
35496;SDS011;21609;49.298;6.844;2023-03-04T14:27:38;4.85;;;3.40;;
35496;SDS011;21609;49.298;6.844;2023-03-04T14:30:05;4.13;;;3.67;;
35496;SDS011;21609;49.298;6.844;2023-03-04T14:32:40;4.75;;;3.08;;
35496;SDS011;21609;49.298;6.844;2023-03-04T14:35:28;8.00;;;3.95;;
35496;SDS011;21609;49.298;6.844;2023-03-04T14:38:06;6.97;;;3.35;;
35496;SDS011;21609;49.298;6.844;2023-03-04T14:40:44;3.70;;;2.80;;
35496;SDS011;21609;49.298;6.844;2023-03-04T14:43:21;3.63;;;3.25;;
35496;SDS011;21609;49.298;6.844;2023-03-04T14:45:48;2.92;;;2.45;;
35496;SDS011;21609;49.298;6.844;2023-03-04T14:48:20;4.43;;;3.00;;
35496;SDS011;21609;49.298;6.844;2023-03-04T14:50:49;5.15;;;3.22;;
35496;SDS011;21609;49.298;6.844;2023-03-04T14:53:17;4.72;;;3.47;;
35496;SDS011;21609;49.298;6.844;2023-03-04T14:58:22;5.95;;;2.67;;
35496;SDS011;21609;49.298;6.844;2023-03-04T15:01:06;6.65;;;3.45;;
35496;SDS011;21609;49.298;6.844;2023-03-04T15:03:32;5.17;;;3.23;;
35496;SDS011;21609;49.298;6.844;2023-03-04T15:06:05;4.55;;;2.40;;
35496;SDS011;21609;49.298;6.844;2023-03-04T15:08:40;3.55;;;3.20;;
35496;SDS011;21609;49.298;6.844;2023-03-04T15:11:06;2.90;;;2.60;;
35496;SDS011;21609;49.298;6.844;2023-03-04T15:13:36;4.88;;;3.05;;
35496;SDS011;21609;49.298;6.844;2023-03-04T15:16:11;4.18;;;3.38;;
35496;SDS011;21609;49.298;6.844;2023-03-04T15:18:38;5.20;;;3.13;;
35496;SDS011;21609;49.298;6.844;2023-03-04T15:23:46;4.20;;;2.85;;
35496;SDS011;21609;49.298;6.844;2023-03-04T15:26:11;3.75;;;2.90;;
35496;SDS011;21609;49.298;6.844;2023-03-04T15:28:38;3.63;;;2.92;;
35496;SDS011;21609;49.298;6.844;2023-03-04T15:31:05;3.13;;;2.72;;
35496;SDS011;21609;49.298;6.844;2023-03-04T15:33:39;3.38;;;2.83;;
35496;SDS011;21609;49.298;6.844;2023-03-04T15:36:05;4.53;;;3.17;;
35496;SDS011;21609;49.298;6.844;2023-03-04T15:38:33;3.90;;;2.72;;
35496;SDS011;21609;49.298;6.844;2023-03-04T15:40:59;3.22;;;2.92;;
35496;SDS011;21609;49.298;6.844;2023-03-04T15:43:25;4.13;;;2.78;;
35496;SDS011;21609;49.298;6.844;2023-03-04T15:45:51;2.65;;;2.45;;
35496;SDS011;21609;49.298;6.844;2023-03-04T15:48:17;3.45;;;2.60;;
35496;SDS011;21609;49.298;6.844;2023-03-04T15:50:44;5.25;;;3.00;;
35496;SDS011;21609;49.298;6.844;2023-03-04T15:53:18;2.70;;;2.50;;
35496;SDS011;21609;49.298;6.844;2023-03-04T15:56:16;3.75;;;3.00;;
35496;SDS011;21609;49.298;6.844;2023-03-04T15:58:45;4.32;;;2.92;;
35496;SDS011;21609;49.298;6.844;2023-03-04T16:01:16;4.07;;;2.92;;
35496;SDS011;21609;49.298;6.844;2023-03-04T16:03:42;3.90;;;2.80;;
35496;SDS011;21609;49.298;6.844;2023-03-04T16:06:08;4.82;;;3.10;;
35496;SDS011;21609;49.298;6.844;2023-03-04T16:08:36;3.08;;;2.53;;
35496;SDS011;21609;49.298;6.844;2023-03-04T16:11:02;3.33;;;2.50;;
35496;SDS011;21609;49.298;6.844;2023-03-04T16:13:28;3.53;;;2.50;;
35496;SDS011;21609;49.298;6.844;2023-03-04T16:15:54;2.83;;;2.50;;
35496;SDS011;21609;49.298;6.844;2023-03-04T16:18:19;4.80;;;2.65;;
35496;SDS011;21609;49.298;6.844;2023-03-04T16:20:46;6.72;;;2.58;;
35496;SDS011;21609;49.298;6.844;2023-03-04T16:23:22;3.95;;;3.08;;
35496;SDS011;21609;49.298;6.844;2023-03-04T16:25:49;3.53;;;2.67;;
35496;SDS011;21609;49.298;6.844;2023-03-04T16:28:18;2.25;;;1.95;;
35496;SDS011;21609;49.298;6.844;2023-03-04T16:30:44;3.58;;;2.33;;
35496;SDS011;21609;49.298;6.844;2023-03-04T16:33:10;3.25;;;2.95;;
35496;SDS011;21609;49.298;6.844;2023-03-04T16:35:36;3.75;;;2.58;;
35496;SDS011;21609;49.298;6.844;2023-03-04T16:38:04;2.72;;;2.45;;
35496;SDS011;21609;49.298;6.844;2023-03-04T16:40:36;4.13;;;2.70;;